首页
METAR-TAF:

METAR-TAF

机场 :

下诺夫哥罗德, 俄罗斯

纬度: 56-19-48N, 经度: 044-00E, 海拔: 78米

当前天气观测

该预报发布于44分钟前的19:00 UTC
风速6节,风向南转南东
温度 2°C
湿度 100%
气压 997 hPa
能見度: 9000
阴天层高于1000英尺
小雨

METAR: UWGG 271900Z 15003MPS 9000 -RA OVC010 02/02 Q0997 R18L/290050 NOSIG

时间: 22:44 (19:44 UTC)

预报

该预报发布于2小时和48分钟前的16:56 UTC
预报有效从27日的 18点(UTC)到 28日的 18点(UTC)
风速6节,风向东南
能見度: 3100
多云层高于600英尺
小雨, 雪, 轻雾
短暂存在
从 27日的 18点(UTC)到 28日的 15点(UTC)
风速12节,风向南转南东,有时为23节阵风
能見度: 0500
多云层高于400英尺, 积雨云.
大阵雪, 雨, 雾

TAF: UWGG 271656Z 2718/2818 14003MPS 3100 -RASN BR BKN006 TX05/2813Z TN00/2803Z TEMPO 2718/2815 16006G12MPS 0500 +SHSNRA FG BKN004CB

超过4000个机场的气象观测和天气预报(METAR&TAF报告)。

可查询的气象台以黄色和红色小点在地图上表示。

将鼠标移到小点上方,可查看气象台名称。

然后点击查看天气观测和预报。

如需切换地图:点击带黑十字的绿色按钮放大地图;点击带横线的绿色按钮缩小地图;或者点击绿色箭头查看邻近地区的地图。


METAR-TAF: